createdAt,value
2019-04-30T00:00:45.618Z,6.16
2019-04-30T00:01:48.603Z,6.02
2019-04-30T00:02:45.560Z,6.10
2019-04-30T00:03:46.239Z,6.05
2019-04-30T00:04:45.592Z,6.12
2019-04-30T00:05:49.299Z,6.05
2019-04-30T00:06:45.616Z,6.06
2019-04-30T00:07:46.219Z,6.09
2019-04-30T00:08:45.650Z,6.07
2019-04-30T00:09:49.235Z,6.06
2019-04-30T00:10:45.678Z,6.01
2019-04-30T00:11:46.080Z,6.07
2019-04-30T00:12:45.706Z,6.13
2019-04-30T00:13:45.957Z,6.07
2019-04-30T00:14:45.738Z,5.98
2019-04-30T00:15:47.815Z,5.99
2019-04-30T00:16:45.765Z,5.98
2019-04-30T00:17:47.518Z,6.01
2019-04-30T00:18:57.120Z,5.98
2019-04-30T00:19:46.014Z,6.02
2019-04-30T00:20:47.049Z,5.92
2019-04-30T00:21:50.244Z,5.92
2019-04-30T00:22:49.265Z,5.97
2019-04-30T00:23:45.985Z,5.99
2019-04-30T00:24:49.712Z,5.84
2019-04-30T00:25:46.097Z,5.92
2019-04-30T00:26:52.096Z,5.94
2019-04-30T00:27:48.055Z,5.91
2019-04-30T00:28:47.702Z,5.88
2019-04-30T00:29:45.955Z,5.87
2019-04-30T00:30:47.828Z,5.87
2019-04-30T00:31:47.148Z,5.90
2019-04-30T00:32:47.219Z,5.84
2019-04-30T00:33:46.014Z,5.79
2019-04-30T00:34:46.025Z,5.77
2019-04-30T00:35:49.761Z,5.87
2019-04-30T00:36:46.068Z,5.87
2019-04-30T00:37:51.658Z,5.74
2019-04-30T00:38:46.085Z,5.83
2019-04-30T00:39:51.017Z,5.74
2019-04-30T00:40:46.115Z,5.74
2019-04-30T00:41:47.349Z,5.77
2019-04-30T00:42:46.144Z,5.77
2019-04-30T00:43:49.673Z,5.84
2019-04-30T00:44:46.176Z,5.80
2019-04-30T00:45:47.580Z,5.79
2019-04-30T00:46:48.028Z,5.79
2019-04-30T00:47:47.886Z,5.73
2019-04-30T00:48:46.230Z,5.73
2019-04-30T00:49:47.276Z,5.76
2019-04-30T00:50:46.258Z,5.72
2019-04-30T00:51:49.719Z,5.72
2019-04-30T00:52:46.291Z,5.74
2019-04-30T00:53:51.302Z,5.73
2019-04-30T00:54:46.317Z,5.64
2019-04-30T00:55:48.443Z,5.64
2019-04-30T00:56:46.346Z,5.65
2019-04-30T00:57:47.408Z,5.58
2019-04-30T00:58:46.374Z,5.70
2019-04-30T00:59:47.973Z,5.61
2019-04-30T01:00:46.404Z,5.61
2019-04-30T01:01:48.152Z,5.56
2019-04-30T01:02:46.429Z,5.61
2019-04-30T01:03:49.406Z,5.59
2019-04-30T01:04:46.461Z,5.62
2019-04-30T01:05:47.949Z,5.58
2019-04-30T01:06:46.489Z,5.52
2019-04-30T01:07:50.567Z,5.61
2019-04-30T01:08:46.517Z,5.51
2019-04-30T01:09:49.392Z,5.52
2019-04-30T01:10:46.545Z,5.56
2019-04-30T01:11:48.077Z,5.62
2019-04-30T01:12:49.639Z,5.58
2019-04-30T01:13:50.998Z,5.46
2019-04-30T01:14:46.603Z,5.54
2019-04-30T01:15:48.955Z,5.52
2019-04-30T01:16:46.633Z,5.55
2019-04-30T01:17:51.058Z,5.46
2019-04-30T01:18:46.659Z,5.47
2019-04-30T01:19:51.072Z,5.51
2019-04-30T01:20:48.652Z,5.43
2019-04-30T01:21:47.041Z,5.40
2019-04-30T01:22:48.567Z,5.46
2019-04-30T01:23:51.744Z,5.47
2019-04-30T01:24:46.745Z,5.43
2019-04-30T01:25:50.014Z,5.31
2019-04-30T01:26:48.564Z,5.34
2019-04-30T01:27:46.789Z,5.34
2019-04-30T01:28:46.802Z,5.31
2019-04-30T01:29:48.626Z,5.29
2019-04-30T01:30:46.830Z,5.33
2019-04-30T01:31:48.681Z,5.33
2019-04-30T01:32:52.154Z,5.33
2019-04-30T01:33:48.796Z,5.34
2019-04-30T01:34:49.849Z,5.29
2019-04-30T01:35:48.678Z,5.43
2019-04-30T01:36:48.472Z,5.40
2019-04-30T01:37:48.705Z,5.38
2019-04-30T01:38:49.047Z,5.37
2019-04-30T01:39:49.080Z,5.28
2019-04-30T01:40:47.568Z,5.29
2019-04-30T01:41:48.629Z,5.33
2019-04-30T01:42:48.563Z,5.29
2019-04-30T01:43:48.615Z,5.33
2019-04-30T01:44:50.553Z,5.29
2019-04-30T01:45:48.596Z,5.29
2019-04-30T01:46:48.245Z,5.26
2019-04-30T01:47:47.073Z,5.29
2019-04-30T01:48:48.666Z,5.29
2019-04-30T01:49:47.100Z,5.25
2019-04-30T01:50:48.684Z,5.20
2019-04-30T01:51:48.563Z,5.22
2019-04-30T01:52:49.226Z,5.29
2019-04-30T01:53:48.443Z,5.28
2019-04-30T01:54:48.922Z,5.28
2019-04-30T01:55:49.145Z,5.25
2019-04-30T01:56:47.199Z,5.25
2019-04-30T01:57:49.037Z,5.23
2019-04-30T01:58:47.225Z,5.28
2019-04-30T01:59:48.572Z,5.23
2019-04-30T02:00:48.960Z,5.19
2019-04-30T02:01:48.649Z,5.25
2019-04-30T02:02:47.282Z,5.16
2019-04-30T02:03:48.686Z,5.19
2019-04-30T02:04:49.114Z,5.16
2019-04-30T02:05:47.326Z,5.20
2019-04-30T02:06:49.193Z,5.19
2019-04-30T02:07:48.652Z,5.13
2019-04-30T02:08:49.267Z,5.16
2019-04-30T02:09:48.822Z,5.19
2019-04-30T02:10:49.117Z,5.16
2019-04-30T02:11:48.813Z,5.15
2019-04-30T02:12:49.189Z,5.13
2019-04-30T02:13:49.059Z,5.10
2019-04-30T02:14:49.470Z,5.10
2019-04-30T02:15:49.098Z,4.98
2019-04-30T02:16:49.310Z,5.05
2019-04-30T02:17:50.258Z,5.07
2019-04-30T02:18:49.021Z,5.04
2019-04-30T02:19:55.981Z,5.01
2019-04-30T02:20:49.519Z,4.94
2019-04-30T02:21:48.653Z,5.02
2019-04-30T02:22:48.610Z,5.01
2019-04-30T02:23:49.164Z,5.04
2019-04-30T02:24:48.643Z,5.07
2019-04-30T02:25:49.035Z,4.94
2019-04-30T02:26:48.473Z,5.00
2019-04-30T02:27:48.945Z,4.92
2019-04-30T02:28:49.382Z,4.97
2019-04-30T02:29:49.401Z,4.97
2019-04-30T02:30:50.059Z,4.95
2019-04-30T02:31:50.121Z,4.92
2019-04-30T02:32:52.078Z,4.92
2019-04-30T02:33:50.088Z,4.95
2019-04-30T02:34:49.811Z,4.94
2019-04-30T02:35:49.948Z,4.90
2019-04-30T02:36:49.860Z,4.95
2019-04-30T02:37:50.460Z,4.95
2019-04-30T02:38:49.363Z,4.90
2019-04-30T02:39:50.191Z,4.94
2019-04-30T02:40:49.815Z,4.84
2019-04-30T02:41:50.456Z,4.84
2019-04-30T02:42:49.763Z,4.87
2019-04-30T02:43:49.761Z,4.82
2019-04-30T02:44:50.200Z,4.89
2019-04-30T02:45:49.839Z,4.89
2019-04-30T02:46:50.320Z,4.84
2019-04-30T02:47:49.957Z,4.83
2019-04-30T02:48:50.326Z,4.71
2019-04-30T02:49:52.920Z,4.70
2019-04-30T02:50:49.178Z,4.75
2019-04-30T02:51:49.936Z,4.70
2019-04-30T02:52:50.432Z,4.71
2019-04-30T02:53:50.197Z,4.76
2019-04-30T02:54:49.893Z,4.67
2019-04-30T02:55:49.903Z,4.70
2019-04-30T02:56:50.444Z,4.70
2019-04-30T02:57:49.884Z,4.68
2019-04-30T02:58:50.178Z,4.74
2019-04-30T02:59:49.682Z,4.60
2019-04-30T03:00:49.564Z,4.61
2019-04-30T03:01:50.158Z,4.58
2019-04-30T03:02:50.269Z,4.61
2019-04-30T03:03:50.168Z,4.66
2019-04-30T03:04:50.128Z,4.64
2019-04-30T03:05:49.732Z,4.58
2019-04-30T03:06:50.358Z,4.66
2019-04-30T03:07:52.979Z,4.58
2019-04-30T03:08:50.687Z,4.56
2019-04-30T03:09:49.981Z,4.57
2019-04-30T03:10:49.971Z,4.57
2019-04-30T03:11:49.880Z,4.56
2019-04-30T03:12:50.005Z,4.53
2019-04-30T03:13:49.401Z,4.57
2019-04-30T03:14:50.193Z,4.50
2019-04-30T03:15:49.368Z,4.56
2019-04-30T03:16:52.662Z,4.57
2019-04-30T03:17:50.587Z,4.56
2019-04-30T03:18:49.909Z,4.57
2019-04-30T03:19:50.197Z,4.42
2019-04-30T03:20:49.709Z,4.45
2019-04-30T03:21:50.219Z,4.46
2019-04-30T03:22:51.087Z,4.39
2019-04-30T03:23:50.336Z,4.43
2019-04-30T03:24:50.096Z,4.43
2019-04-30T03:25:50.165Z,4.42
2019-04-30T03:26:49.903Z,4.42
2019-04-30T03:27:49.858Z,4.42
2019-04-30T03:28:49.293Z,4.45
2019-04-30T03:29:50.288Z,4.32
2019-04-30T03:30:56.176Z,4.34
2019-04-30T03:31:51.862Z,4.32
2019-04-30T03:32:55.479Z,4.34
2019-04-30T03:33:52.228Z,4.34
2019-04-30T03:34:51.763Z,4.34
2019-04-30T03:35:54.402Z,4.31
2019-04-30T03:36:50.452Z,4.32
2019-04-30T03:37:49.675Z,4.34
2019-04-30T03:38:50.072Z,4.32
2019-04-30T03:39:49.363Z,4.32
2019-04-30T03:40:50.208Z,4.31
2019-04-30T03:41:50.170Z,4.30
2019-04-30T03:42:49.446Z,4.24
2019-04-30T03:43:50.348Z,4.30
2019-04-30T03:44:49.642Z,4.24
2019-04-30T03:45:49.953Z,4.24
2019-04-30T03:46:49.847Z,4.27
2019-04-30T03:47:50.515Z,4.21
2019-04-30T03:48:50.412Z,4.22
2019-04-30T03:49:49.912Z,4.30
2019-04-30T03:50:56.133Z,4.30
2019-04-30T03:51:49.836Z,4.22
2019-04-30T03:52:50.391Z,4.31
2019-04-30T03:53:50.161Z,4.21
2019-04-30T03:54:49.473Z,4.20
2019-04-30T03:55:50.610Z,4.31
2019-04-30T03:56:50.127Z,4.25
2019-04-30T03:57:51.639Z,4.27
2019-04-30T03:58:50.297Z,4.30
2019-04-30T03:59:49.943Z,4.22
2019-04-30T04:00:50.228Z,4.21
2019-04-30T04:01:49.747Z,4.36
2019-04-30T04:02:50.114Z,4.25
2019-04-30T04:03:49.899Z,4.24
2019-04-30T04:04:52.337Z,4.25
2019-04-30T04:05:49.724Z,4.25
2019-04-30T04:06:49.309Z,4.27
2019-04-30T04:07:52.486Z,4.25
2019-04-30T04:08:49.151Z,4.30
2019-04-30T04:09:49.906Z,4.32
2019-04-30T04:10:50.229Z,4.31
2019-04-30T04:11:50.782Z,4.30
2019-04-30T04:12:49.860Z,4.32
2019-04-30T04:13:49.553Z,4.22
2019-04-30T04:14:50.909Z,4.24
2019-04-30T04:15:49.992Z,4.28
2019-04-30T04:16:50.755Z,4.32
2019-04-30T04:17:50.337Z,4.27
2019-04-30T04:18:50.087Z,4.28
2019-04-30T04:19:49.438Z,4.21
2019-04-30T04:20:51.977Z,4.20
2019-04-30T04:21:50.942Z,4.30
2019-04-30T04:22:49.727Z,4.24
2019-04-30T04:23:49.411Z,4.18
2019-04-30T04:24:50.368Z,4.32
2019-04-30T04:25:49.815Z,4.24
2019-04-30T04:26:50.179Z,4.27
2019-04-30T04:27:50.934Z,4.25
2019-04-30T04:28:49.615Z,4.24
2019-04-30T04:29:51.178Z,4.25
2019-04-30T04:30:50.657Z,4.27
2019-04-30T04:31:50.155Z,4.25
2019-04-30T04:32:50.108Z,4.28
2019-04-30T04:33:52.457Z,4.27
2019-04-30T04:34:50.415Z,4.32
2019-04-30T04:35:49.787Z,4.36
2019-04-30T04:36:50.574Z,4.25
2019-04-30T04:37:49.749Z,4.20
2019-04-30T04:38:50.601Z,4.25
2019-04-30T04:39:50.103Z,4.21
2019-04-30T04:40:50.250Z,4.36
2019-04-30T04:41:50.227Z,4.34
2019-04-30T04:42:49.536Z,4.22
2019-04-30T04:43:50.356Z,4.30
2019-04-30T04:44:50.089Z,4.30
2019-04-30T04:45:49.951Z,4.42
2019-04-30T04:46:50.283Z,4.31
2019-04-30T04:47:50.330Z,4.28
2019-04-30T04:48:49.604Z,4.31
2019-04-30T04:49:53.142Z,4.34
2019-04-30T04:50:50.139Z,4.43
2019-04-30T04:51:49.609Z,4.42
2019-04-30T04:52:49.800Z,4.40
2019-04-30T04:53:50.018Z,4.40
2019-04-30T04:54:50.740Z,4.45
2019-04-30T04:55:50.016Z,4.48
2019-04-30T04:56:52.995Z,4.46
2019-04-30T04:57:50.043Z,4.46
2019-04-30T04:58:50.236Z,4.48
2019-04-30T04:59:50.113Z,4.52
2019-04-30T05:00:49.758Z,4.48
2019-04-30T05:01:49.732Z,4.56
2019-04-30T05:02:49.949Z,4.63
2019-04-30T05:03:49.757Z,4.61
2019-04-30T05:04:49.773Z,4.60
2019-04-30T05:05:50.086Z,4.60
2019-04-30T05:06:50.026Z,4.71
2019-04-30T05:07:49.812Z,4.61
2019-04-30T05:08:49.825Z,4.74
2019-04-30T05:09:49.847Z,4.74
2019-04-30T05:10:49.855Z,4.87
2019-04-30T05:11:49.873Z,4.86
2019-04-30T05:12:51.066Z,4.90
2019-04-30T05:13:49.897Z,4.82
2019-04-30T05:14:49.910Z,4.83
2019-04-30T05:15:51.565Z,4.86
2019-04-30T05:16:49.939Z,4.92
2019-04-30T05:17:49.952Z,4.90
2019-04-30T05:18:49.968Z,4.92
2019-04-30T05:19:49.986Z,4.95
2019-04-30T05:20:49.995Z,4.92
2019-04-30T05:21:51.757Z,4.89
2019-04-30T05:22:50.020Z,5.01
2019-04-30T05:23:50.036Z,5.00
2019-04-30T05:24:50.054Z,5.04
2019-04-30T05:25:50.063Z,5.13
2019-04-30T05:26:50.080Z,5.13
2019-04-30T05:27:50.092Z,5.16
2019-04-30T05:28:52.826Z,5.16
2019-04-30T05:29:50.119Z,5.15
2019-04-30T05:30:50.134Z,5.18
2019-04-30T05:31:50.146Z,5.23
2019-04-30T05:32:50.865Z,5.26
2019-04-30T05:33:50.176Z,5.36
2019-04-30T05:34:50.193Z,5.28
2019-04-30T05:35:50.205Z,5.36
2019-04-30T05:36:50.219Z,5.43
2019-04-30T05:37:50.233Z,5.37
2019-04-30T05:38:50.250Z,5.46
2019-04-30T05:39:50.260Z,5.41
2019-04-30T05:40:50.276Z,5.49
2019-04-30T05:41:50.289Z,5.47
2019-04-30T05:42:50.306Z,5.47
2019-04-30T05:43:50.320Z,5.58
2019-04-30T05:44:50.332Z,5.54
2019-04-30T05:45:50.348Z,5.55
2019-04-30T05:46:50.362Z,5.56
2019-04-30T05:47:50.577Z,5.67
2019-04-30T05:48:50.388Z,5.67
2019-04-30T05:49:50.405Z,5.61
2019-04-30T05:50:51.809Z,5.76
2019-04-30T05:51:55.144Z,5.77
2019-04-30T05:52:50.449Z,5.84
2019-04-30T05:53:50.463Z,5.88
2019-04-30T05:54:50.475Z,5.92
2019-04-30T05:55:50.491Z,5.88
2019-04-30T05:56:50.506Z,5.94
2019-04-30T05:57:55.780Z,5.99
2019-04-30T05:58:50.579Z,6.02
2019-04-30T05:59:50.611Z,6.06
2019-04-30T06:00:50.625Z,6.07
2019-04-30T06:01:50.866Z,6.26
2019-04-30T06:02:50.675Z,6.19
2019-04-30T06:03:50.676Z,6.20
2019-04-30T06:04:50.677Z,6.38
2019-04-30T06:05:50.703Z,6.43
2019-04-30T06:06:50.671Z,6.36
2019-04-30T06:07:52.050Z,6.49
2019-04-30T06:08:50.691Z,6.47
2019-04-30T06:09:50.701Z,6.52
2019-04-30T06:10:51.783Z,6.57
2019-04-30T06:11:50.733Z,6.71
2019-04-30T06:12:50.742Z,6.74
2019-04-30T06:13:50.759Z,6.71
2019-04-30T06:14:51.745Z,6.90
2019-04-30T06:15:50.791Z,7.00
2019-04-30T06:16:51.752Z,7.07
2019-04-30T06:17:59.961Z,7.14
2019-04-30T06:18:50.837Z,7.22
2019-04-30T06:19:51.504Z,7.21
2019-04-30T06:20:50.865Z,7.22
2019-04-30T06:21:50.885Z,7.25
2019-04-30T06:22:52.242Z,7.44
2019-04-30T06:23:50.913Z,7.61
2019-04-30T06:24:50.938Z,7.81
2019-04-30T06:25:57.564Z,8.24
2019-04-30T06:26:50.961Z,8.41
2019-04-30T06:27:50.976Z,8.60
2019-04-30T06:28:50.993Z,8.79
2019-04-30T06:29:51.016Z,9.09
2019-04-30T06:30:51.025Z,9.33
2019-04-30T06:31:51.043Z,9.48
2019-04-30T06:32:51.060Z,9.82
2019-04-30T06:33:51.078Z,10.06
2019-04-30T06:34:51.107Z,10.28
2019-04-30T06:35:51.114Z,10.45
2019-04-30T06:36:53.386Z,10.68
2019-04-30T06:37:51.151Z,10.82
2019-04-30T06:38:51.169Z,11.07
2019-04-30T06:39:51.189Z,11.35
2019-04-30T06:40:51.207Z,11.58
2019-04-30T06:41:51.229Z,11.74
2019-04-30T06:42:51.245Z,11.81
2019-04-30T06:43:51.266Z,11.96
2019-04-30T06:44:51.285Z,12.07
2019-04-30T06:45:51.445Z,12.15
2019-04-30T06:46:51.322Z,12.29
2019-04-30T06:47:51.345Z,12.53
2019-04-30T06:48:51.366Z,12.55
2019-04-30T06:49:51.386Z,12.53
2019-04-30T06:50:51.405Z,12.65
2019-04-30T06:51:51.424Z,12.76
2019-04-30T06:52:56.799Z,12.95
2019-04-30T06:53:51.498Z,13.01
2019-04-30T06:54:51.486Z,13.03
2019-04-30T06:55:51.507Z,13.06
2019-04-30T06:56:51.527Z,13.27
2019-04-30T06:57:51.549Z,13.24
2019-04-30T06:58:52.682Z,13.50
2019-04-30T06:59:51.677Z,13.64
2019-04-30T07:00:51.612Z,13.78
2019-04-30T07:01:51.633Z,13.85
2019-04-30T07:02:51.652Z,14.08
2019-04-30T07:03:51.675Z,14.25
2019-04-30T07:04:51.695Z,14.48
2019-04-30T07:05:51.716Z,14.55
2019-04-30T07:06:51.741Z,14.77
2019-04-30T07:07:53.286Z,14.96
2019-04-30T07:08:56.121Z,15.12
2019-04-30T07:09:56.779Z,15.12
2019-04-30T07:10:55.659Z,15.15
2019-04-30T07:11:51.858Z,15.32
2019-04-30T07:12:51.869Z,15.32
2019-04-30T07:13:52.175Z,15.29
2019-04-30T07:14:51.913Z,15.26
2019-04-30T07:15:51.942Z,15.33
2019-04-30T07:16:51.960Z,15.32
2019-04-30T07:17:51.980Z,15.37
2019-04-30T07:18:52.004Z,15.47
2019-04-30T07:20:52.049Z,15.59
2019-04-30T07:21:52.070Z,15.65
2019-04-30T07:22:58.846Z,15.83
2019-04-30T07:23:52.116Z,15.76
2019-04-30T07:24:52.187Z,15.62
2019-04-30T07:25:52.162Z,15.54
2019-04-30T07:26:54.611Z,15.48
2019-04-30T07:27:52.207Z,15.47
2019-04-30T07:28:55.108Z,15.29
2019-04-30T07:29:52.255Z,15.47
2019-04-30T07:31:07.624Z,15.48
2019-04-30T07:31:52.300Z,15.63
2019-04-30T07:32:52.323Z,15.67
2019-04-30T07:33:53.887Z,15.87
2019-04-30T07:34:52.370Z,15.99
2019-04-30T07:35:52.393Z,15.83
2019-04-30T07:37:10.945Z,15.94
2019-04-30T07:37:54.621Z,16.00
2019-04-30T07:38:56.463Z,16.16
2019-04-30T07:39:52.567Z,16.13
2019-04-30T07:40:52.552Z,16.16
2019-04-30T07:41:52.554Z,16.08
2019-04-30T07:42:52.558Z,16.12
2019-04-30T07:43:52.586Z,15.67
2019-04-30T07:44:52.606Z,15.90
2019-04-30T07:45:52.654Z,15.72
2019-04-30T07:46:52.655Z,15.67
2019-04-30T07:47:52.677Z,15.81
2019-04-30T07:48:52.703Z,15.81
2019-04-30T07:49:55.808Z,15.80
2019-04-30T07:50:52.750Z,15.90
2019-04-30T07:51:53.186Z,16.00
2019-04-30T07:53:02.447Z,15.90
2019-04-30T07:53:52.823Z,16.03
2019-04-30T07:54:52.846Z,16.03
2019-04-30T07:55:52.873Z,15.99
2019-04-30T07:56:52.910Z,16.09
2019-04-30T07:57:52.922Z,16.29
2019-04-30T07:58:52.945Z,16.34
2019-04-30T07:59:52.970Z,16.39
2019-04-30T08:00:56.309Z,16.36
2019-04-30T08:02:06.285Z,16.40
2019-04-30T08:02:53.047Z,16.43
2019-04-30T08:03:53.311Z,16.43
2019-04-30T08:04:53.095Z,16.47
2019-04-30T08:05:53.220Z,16.50
2019-04-30T08:06:53.162Z,16.57
2019-04-30T08:07:53.215Z,16.54
2019-04-30T08:08:57.183Z,16.39
2019-04-30T08:09:31.419Z,15.57
2019-04-30T08:09:53.222Z,16.21
2019-04-30T08:10:53.247Z,16.24
2019-04-30T08:11:53.272Z,16.10
2019-04-30T08:12:53.612Z,16.05
2019-04-30T08:13:53.435Z,15.94
2019-04-30T08:14:53.345Z,15.76
2019-04-30T08:15:53.366Z,15.70
2019-04-30T08:16:53.392Z,15.67
2019-04-30T08:18:02.741Z,15.66
2019-04-30T08:18:53.443Z,15.52
2019-04-30T08:19:53.464Z,15.44
2019-04-30T08:20:53.487Z,15.29
2019-04-30T08:21:53.506Z,15.33
2019-04-30T08:22:53.529Z,15.17
2019-04-30T08:23:53.553Z,15.10
2019-04-30T08:24:53.576Z,15.00
2019-04-30T08:25:53.596Z,14.90
2019-04-30T08:26:53.616Z,14.92
2019-04-30T08:27:53.636Z,14.74
2019-04-30T08:28:53.659Z,14.74
2019-04-30T08:29:53.680Z,14.68
2019-04-30T08:30:53.702Z,14.61
2019-04-30T08:31:53.723Z,14.52
2019-04-30T08:32:53.743Z,14.49
2019-04-30T08:33:53.765Z,14.49
2019-04-30T08:34:53.785Z,14.34
2019-04-30T08:35:53.807Z,14.34
2019-04-30T08:36:54.820Z,14.37
2019-04-30T08:37:53.847Z,14.25
2019-04-30T08:38:53.868Z,14.30
2019-04-30T08:39:53.889Z,14.26
2019-04-30T08:40:58.143Z,14.15
2019-04-30T08:41:53.930Z,14.18
2019-04-30T08:42:53.950Z,14.19
2019-04-30T08:43:53.970Z,14.15
2019-04-30T08:44:53.990Z,14.15
2019-04-30T08:45:54.014Z,14.16
2019-04-30T08:46:54.030Z,14.11
2019-04-30T08:47:54.050Z,14.11
2019-04-30T08:48:54.072Z,14.11
2019-04-30T08:49:54.089Z,14.11
2019-04-30T08:50:54.117Z,14.13
2019-04-30T08:51:54.132Z,14.15
2019-04-30T08:52:54.152Z,14.04
2019-04-30T08:53:54.173Z,14.08
2019-04-30T08:54:54.189Z,14.05
2019-04-30T08:55:54.213Z,14.13
2019-04-30T08:56:54.239Z,14.11
2019-04-30T08:58:06.588Z,14.04
2019-04-30T08:58:54.928Z,14.04
2019-04-30T08:59:54.290Z,14.13
2019-04-30T09:00:54.364Z,14.20
2019-04-30T09:01:54.394Z,14.16
2019-04-30T09:02:54.403Z,14.30
2019-04-30T09:03:54.406Z,14.30
2019-04-30T09:04:54.453Z,14.30
2019-04-30T09:05:54.447Z,14.31
2019-04-30T09:06:54.451Z,14.31
2019-04-30T09:07:54.453Z,14.37
2019-04-30T09:08:54.473Z,14.31
2019-04-30T09:09:54.492Z,14.34
2019-04-30T09:10:54.513Z,14.37
2019-04-30T09:11:55.751Z,14.33
2019-04-30T09:12:54.552Z,14.33
2019-04-30T09:13:54.574Z,14.41
2019-04-30T09:14:54.592Z,14.37
2019-04-30T09:15:54.614Z,14.45
2019-04-30T09:16:54.636Z,14.36
2019-04-30T09:18:03.139Z,14.44
2019-04-30T09:18:54.672Z,14.43
2019-04-30T09:19:54.693Z,14.48
2019-04-30T09:21:03.453Z,14.43
2019-04-30T09:21:54.733Z,14.55
2019-04-30T09:22:54.751Z,14.61
2019-04-30T09:23:54.776Z,14.51
2019-04-30T09:24:54.793Z,14.61
2019-04-30T09:25:54.815Z,14.58
2019-04-30T09:26:54.830Z,14.70
2019-04-30T09:27:54.853Z,14.74
2019-04-30T09:28:54.875Z,14.78
2019-04-30T09:29:54.893Z,14.79
2019-04-30T09:30:54.912Z,14.87
2019-04-30T09:31:54.931Z,14.92
2019-04-30T09:32:54.955Z,14.93
2019-04-30T09:33:57.704Z,14.94
2019-04-30T09:34:54.990Z,14.94
2019-04-30T09:35:55.014Z,15.02
2019-04-30T09:36:55.034Z,15.11
2019-04-30T09:37:59.692Z,15.08
2019-04-30T09:38:55.081Z,15.10
2019-04-30T09:39:55.094Z,15.10
2019-04-30T09:40:55.115Z,15.10
2019-04-30T09:41:55.136Z,15.27
2019-04-30T09:42:55.154Z,15.27
2019-04-30T09:43:55.183Z,15.22
2019-04-30T09:44:57.246Z,15.17
2019-04-30T09:45:55.215Z,15.27
2019-04-30T09:46:55.239Z,15.26
2019-04-30T09:47:55.260Z,15.22
2019-04-30T09:48:55.279Z,15.33
2019-04-30T09:49:55.299Z,15.43
2019-04-30T09:50:55.515Z,15.41
2019-04-30T09:51:55.340Z,15.43
2019-04-30T09:52:55.361Z,15.52
2019-04-30T09:53:59.423Z,15.54
2019-04-30T09:54:55.406Z,15.59
2019-04-30T09:55:55.422Z,15.65
2019-04-30T09:56:55.444Z,15.67
2019-04-30T09:57:55.465Z,15.65
2019-04-30T09:58:55.484Z,15.78
2019-04-30T09:59:55.511Z,15.84
2019-04-30T10:00:55.530Z,15.80
2019-04-30T10:01:55.549Z,15.92
2019-04-30T10:02:55.686Z,16.06
2019-04-30T10:03:55.979Z,16.17
2019-04-30T10:04:55.932Z,16.28
2019-04-30T10:05:55.639Z,16.34
2019-04-30T10:06:55.660Z,16.54
2019-04-30T10:07:55.685Z,16.77
2019-04-30T10:08:55.711Z,16.87
2019-04-30T10:09:55.739Z,17.05
2019-04-30T10:10:55.759Z,17.31
2019-04-30T10:11:55.781Z,17.46
2019-04-30T10:12:55.807Z,17.65
2019-04-30T10:13:55.831Z,17.76
2019-04-30T10:14:55.856Z,18.02
2019-04-30T10:15:55.881Z,18.19
2019-04-30T10:16:55.906Z,18.52
2019-04-30T10:17:55.935Z,18.57
2019-04-30T10:18:55.962Z,18.66
2019-04-30T10:19:55.986Z,18.68
2019-04-30T10:20:56.010Z,18.86
2019-04-30T10:21:56.042Z,18.79
2019-04-30T10:22:56.067Z,19.04
2019-04-30T10:24:10.006Z,19.19
2019-04-30T10:24:56.124Z,19.35
2019-04-30T10:25:56.152Z,19.41
2019-04-30T10:26:56.193Z,19.72
2019-04-30T10:27:56.298Z,19.75
2019-04-30T10:28:56.293Z,20.14
2019-04-30T10:29:56.348Z,20.33
2019-04-30T10:30:56.346Z,20.63
2019-04-30T10:31:56.347Z,20.86
2019-04-30T10:32:56.359Z,21.17
2019-04-30T10:33:58.480Z,21.48
2019-04-30T10:34:56.420Z,21.70
2019-04-30T10:35:56.451Z,21.88
2019-04-30T10:36:56.483Z,22.06
2019-04-30T10:37:56.515Z,22.49
2019-04-30T10:38:56.576Z,22.58
2019-04-30T10:39:56.582Z,22.67
2019-04-30T10:40:58.619Z,22.89
2019-04-30T10:41:56.643Z,23.16
2019-04-30T10:42:58.541Z,23.36
2019-04-30T10:43:58.966Z,23.44
2019-04-30T10:45:00.033Z,23.55
2019-04-30T10:45:58.494Z,23.77
2019-04-30T10:46:56.814Z,24.22
2019-04-30T10:47:56.844Z,24.51
2019-04-30T10:48:56.878Z,24.66
2019-04-30T10:49:58.474Z,24.61
2019-04-30T10:50:56.945Z,24.81
2019-04-30T10:51:56.979Z,24.94
2019-04-30T10:52:58.996Z,25.26
2019-04-30T10:53:59.041Z,25.31
2019-04-30T10:54:57.086Z,25.56
2019-04-30T10:55:57.120Z,25.71
2019-04-30T10:56:58.947Z,25.63
2019-04-30T10:57:57.193Z,25.58
2019-04-30T10:58:57.226Z,25.67
2019-04-30T10:59:58.672Z,25.85
2019-04-30T11:00:59.526Z,26.11
2019-04-30T11:01:59.062Z,26.34
2019-04-30T11:02:59.231Z,26.34
2019-04-30T11:03:57.402Z,26.31
2019-04-30T11:04:57.436Z,26.45
2019-04-30T11:05:58.569Z,26.79
2019-04-30T11:07:00.058Z,26.98
2019-04-30T11:07:59.288Z,27.11
2019-04-30T11:08:57.582Z,27.25
2019-04-30T11:09:58.814Z,27.44
2019-04-30T11:10:57.653Z,27.48
2019-04-30T11:11:59.357Z,27.48
2019-04-30T11:12:57.726Z,27.64
2019-04-30T11:13:57.765Z,27.72
2019-04-30T11:14:57.799Z,27.67
2019-04-30T11:16:02.616Z,27.73
2019-04-30T11:16:59.748Z,27.71
2019-04-30T11:17:59.514Z,28.09
2019-04-30T11:18:59.092Z,28.01
2019-04-30T11:19:59.146Z,28.12
2019-04-30T11:20:59.581Z,28.09
2019-04-30T11:21:58.219Z,28.22
2019-04-30T11:22:58.212Z,28.22
2019-04-30T11:23:59.463Z,28.25
2019-04-30T11:25:01.996Z,28.47
2019-04-30T11:26:00.120Z,28.70
2019-04-30T11:27:00.025Z,28.71
2019-04-30T11:27:58.516Z,28.55
2019-04-30T11:28:58.516Z,28.43
2019-04-30T11:30:03.219Z,28.28
2019-04-30T11:30:58.500Z,28.15
2019-04-30T11:31:58.560Z,28.15
2019-04-30T11:32:58.709Z,28.31
2019-04-30T11:33:58.496Z,28.23
2019-04-30T11:34:58.533Z,28.25
2019-04-30T11:36:02.956Z,28.34
2019-04-30T11:36:58.606Z,28.41
2019-04-30T11:37:58.650Z,28.62
2019-04-30T11:38:58.718Z,28.67
2019-04-30T11:39:58.714Z,28.78
2019-04-30T11:40:58.757Z,28.70
2019-04-30T11:41:58.788Z,28.78
2019-04-30T11:42:58.824Z,28.65
2019-04-30T11:43:59.487Z,28.67
2019-04-30T11:44:58.899Z,28.71
2019-04-30T11:46:00.324Z,28.72
2019-04-30T11:46:59.605Z,28.70
2019-04-30T11:48:00.574Z,28.74
2019-04-30T11:48:59.044Z,28.89
2019-04-30T11:49:59.083Z,28.68
2019-04-30T11:50:59.567Z,28.53
2019-04-30T11:51:59.153Z,28.65
2019-04-30T11:53:14.035Z,28.59
2019-04-30T11:53:59.459Z,28.55
2019-04-30T11:54:59.701Z,28.43
2019-04-30T11:55:59.301Z,28.37
2019-04-30T11:56:59.338Z,28.23
2019-04-30T11:57:59.373Z,28.04
2019-04-30T11:58:59.409Z,28.19
2019-04-30T11:59:59.445Z,28.10
2019-04-30T12:00:59.482Z,28.06
2019-04-30T12:01:59.519Z,27.98
2019-04-30T12:02:59.556Z,27.83
2019-04-30T12:03:59.818Z,27.71
2019-04-30T12:04:59.626Z,27.71
2019-04-30T12:05:59.662Z,27.79
2019-04-30T12:06:59.696Z,27.91
2019-04-30T12:07:59.834Z,28.01
2019-04-30T12:08:59.770Z,28.23
2019-04-30T12:09:59.805Z,28.27
2019-04-30T12:10:59.843Z,28.38
2019-04-30T12:11:59.877Z,28.53
2019-04-30T12:12:59.912Z,28.52
2019-04-30T12:13:59.948Z,28.53
2019-04-30T12:15:02.667Z,28.49
2019-04-30T12:16:00.021Z,28.35
2019-04-30T12:17:00.058Z,28.67
2019-04-30T12:18:00.141Z,28.55
2019-04-30T12:19:00.675Z,28.40
2019-04-30T12:20:00.212Z,28.35
2019-04-30T12:21:00.210Z,28.30
2019-04-30T12:22:00.233Z,28.28
2019-04-30T12:23:00.271Z,28.38
2019-04-30T12:24:00.305Z,28.59
2019-04-30T12:25:03.245Z,28.71
2019-04-30T12:26:02.824Z,28.68
2019-04-30T12:27:00.413Z,28.83
2019-04-30T12:28:00.449Z,28.77
2019-04-30T12:29:00.486Z,28.82
2019-04-30T12:30:00.522Z,28.87
2019-04-30T12:31:00.561Z,28.87
2019-04-30T12:32:00.593Z,28.86
2019-04-30T12:33:00.630Z,28.87
2019-04-30T12:34:00.665Z,28.84
2019-04-30T12:35:00.701Z,28.72
2019-04-30T12:36:00.738Z,28.62
2019-04-30T12:37:00.769Z,28.56
2019-04-30T12:38:00.807Z,28.65
2019-04-30T12:39:00.844Z,28.65
2019-04-30T12:40:00.878Z,28.70
2019-04-30T12:41:00.914Z,28.70
2019-04-30T12:42:02.164Z,28.57
2019-04-30T12:43:00.983Z,28.56
2019-04-30T12:44:01.018Z,28.50
2019-04-30T12:45:01.055Z,28.38
2019-04-30T12:46:03.488Z,28.47
2019-04-30T12:47:01.120Z,28.53
2019-04-30T12:48:01.159Z,28.55
2019-04-30T12:49:01.193Z,28.55
2019-04-30T12:50:01.230Z,28.55
2019-04-30T12:51:01.265Z,28.65
2019-04-30T12:52:01.298Z,28.70
2019-04-30T12:53:01.335Z,28.75
2019-04-30T12:54:01.370Z,28.74
2019-04-30T12:55:01.407Z,28.77
2019-04-30T12:56:01.441Z,28.64
2019-04-30T12:57:01.474Z,28.71
2019-04-30T12:58:01.697Z,28.65
2019-04-30T12:59:01.547Z,28.64
2019-04-30T13:00:01.583Z,28.67
2019-04-30T13:01:01.616Z,28.60
2019-04-30T13:02:01.653Z,28.53
2019-04-30T13:03:01.685Z,28.27
2019-04-30T13:04:01.719Z,28.12
2019-04-30T13:05:01.758Z,27.88
2019-04-30T13:06:02.516Z,27.78